Terminal Aerodrome Forecast
Issued by NWS

Home | Current Version | Previous Version | Text Only | Print | Product List | Glossary On
Versions: 1 2 3 4 5 6 7 8 9 10 11 12
000
FTUS42 KGSP 191739
TAFGMU
TAF
KGMU 191739Z 1918/2018 34007KT P6SM SCT050
      TEMPO 1918/1920 BKN050
     FM200000 36003KT P6SM SKC
     FM201600 07004KT P6SM FEW250=

USA.gov is the U.S. government's official web portal to all federal, state and local government web resources and services.